createdAt,value
2023-03-15T00:02:01.238Z,6.60
2023-03-15T00:04:32.560Z,7.27
2023-03-15T00:07:03.189Z,11.57
2023-03-15T00:09:33.273Z,10.40
2023-03-15T00:12:03.434Z,9.60
2023-03-15T00:14:36.931Z,11.57
2023-03-15T00:17:09.680Z,11.60
2023-03-15T00:19:39.839Z,8.63
2023-03-15T00:22:13.494Z,15.40
2023-03-15T00:24:46.353Z,15.30
2023-03-15T00:27:16.644Z,10.30
2023-03-15T00:29:46.801Z,10.63
2023-03-15T00:32:21.171Z,11.30
2023-03-15T00:34:54.853Z,11.20
2023-03-15T00:37:25.733Z,11.33
2023-03-15T00:39:56.291Z,13.73
2023-03-15T00:42:27.459Z,10.87
2023-03-15T00:44:58.456Z,10.50
2023-03-15T00:47:36.418Z,9.10
2023-03-15T00:50:07.080Z,9.50
2023-03-15T00:52:38.953Z,12.27
2023-03-15T00:55:15.872Z,12.40
2023-03-15T00:57:48.410Z,9.47
2023-03-15T01:00:27.861Z,10.30
2023-03-15T01:03:00.767Z,9.63
2023-03-15T01:05:31.346Z,6.80
2023-03-15T01:08:03.149Z,9.23
2023-03-15T01:10:33.308Z,11.17
2023-03-15T01:13:03.407Z,11.30
2023-03-15T01:15:36.195Z,11.03
2023-03-15T01:18:09.047Z,9.43
2023-03-15T01:20:39.216Z,9.30
2023-03-15T01:23:09.319Z,11.93
2023-03-15T01:25:39.465Z,12.30
2023-03-15T01:28:09.661Z,7.63
2023-03-15T01:30:42.436Z,10.10
2023-03-15T01:33:15.159Z,7.80
2023-03-15T01:35:46.678Z,8.77
2023-03-15T01:38:20.326Z,10.23
2023-03-15T01:40:50.623Z,9.80
2023-03-15T01:43:23.251Z,10.30
2023-03-15T01:46:24.817Z,9.53
2023-03-15T01:49:05.271Z,10.80
2023-03-15T01:51:42.102Z,11.63
2023-03-15T01:54:21.956Z,9.33
2023-03-15T01:57:00.050Z,10.17
2023-03-15T01:59:38.631Z,10.43
2023-03-15T02:02:15.211Z,7.87
2023-03-15T02:04:55.414Z,10.03
2023-03-15T02:07:30.223Z,9.13
2023-03-15T02:10:06.287Z,7.57
2023-03-15T02:12:45.531Z,10.43
2023-03-15T02:15:17.592Z,10.33
2023-03-15T02:17:50.787Z,8.17
2023-03-15T02:20:36.666Z,12.17
2023-03-15T02:23:11.825Z,8.43
2023-03-15T02:25:55.359Z,8.93
2023-03-15T02:28:30.198Z,9.57
2023-03-15T02:31:01.477Z,8.77
2023-03-15T02:33:37.723Z,8.60
2023-03-15T02:36:17.588Z,14.57
2023-03-15T02:38:48.206Z,10.20
2023-03-15T02:41:24.719Z,13.63
2023-03-15T02:44:04.766Z,10.40
2023-03-15T02:46:35.366Z,12.30
2023-03-15T02:49:07.695Z,6.27
2023-03-15T02:51:38.459Z,10.13
2023-03-15T02:54:10.092Z,8.20
2023-03-15T02:56:40.308Z,7.60
2023-03-15T03:01:48.646Z,11.80
2023-03-15T03:04:18.799Z,11.93
2023-03-15T03:06:50.125Z,11.53
2023-03-15T03:09:20.734Z,12.13
2023-03-15T03:11:50.925Z,9.87
2023-03-15T03:14:24.367Z,12.07
2023-03-15T03:16:55.153Z,9.73
2023-03-15T03:19:26.056Z,13.43
2023-03-15T03:21:56.816Z,6.77
2023-03-15T03:24:27.470Z,8.63
2023-03-15T03:26:58.703Z,6.70
2023-03-15T03:29:31.423Z,8.87
2023-03-15T03:32:01.536Z,9.77
2023-03-15T03:34:31.713Z,8.27
2023-03-15T03:37:04.713Z,9.70
2023-03-15T03:39:34.915Z,9.53
2023-03-15T03:42:05.016Z,8.67
2023-03-15T03:44:37.804Z,6.90
2023-03-15T03:47:08.424Z,7.13
2023-03-15T03:49:38.610Z,9.77
2023-03-15T03:52:10.515Z,8.87
2023-03-15T03:54:42.746Z,11.07
2023-03-15T03:57:21.724Z,9.00
2023-03-15T03:59:54.511Z,9.33
2023-03-15T04:02:26.929Z,11.83
2023-03-15T04:04:57.228Z,7.37
2023-03-15T04:07:27.391Z,11.57
2023-03-15T04:09:57.562Z,10.60
2023-03-15T04:12:27.827Z,5.97
2023-03-15T04:15:00.656Z,8.03
2023-03-15T04:17:30.800Z,8.17
2023-03-15T04:20:00.950Z,7.63
2023-03-15T04:22:31.139Z,3.13
2023-03-15T04:25:02.068Z,4.40
2023-03-15T04:27:32.956Z,4.60
2023-03-15T04:30:06.283Z,4.07
2023-03-15T04:32:36.488Z,6.27
2023-03-15T04:35:07.737Z,6.20
2023-03-15T04:37:37.836Z,4.13
2023-03-15T04:40:11.810Z,5.07
2023-03-15T04:42:44.614Z,4.77
2023-03-15T04:45:17.572Z,5.97
2023-03-15T04:47:47.737Z,5.13
2023-03-15T04:50:18.099Z,3.43
2023-03-15T04:52:48.428Z,5.93
2023-03-15T04:55:19.083Z,1.97
2023-03-15T04:57:58.984Z,3.00
2023-03-15T05:00:31.815Z,1.83
2023-03-15T05:03:02.235Z,2.40
2023-03-15T05:05:32.366Z,0.77
2023-03-15T05:08:02.614Z,0.80
2023-03-15T05:10:33.377Z,0.70
2023-03-15T05:13:03.695Z,1.40
2023-03-15T05:15:36.470Z,2.70
2023-03-15T05:18:06.701Z,2.87
2023-03-15T05:20:36.820Z,0.73
2023-03-15T05:23:08.528Z,1.77
2023-03-15T05:25:38.932Z,1.13
2023-03-15T05:28:10.538Z,1.17
2023-03-15T05:30:43.363Z,2.53
2023-03-15T05:33:14.255Z,1.13
2023-03-15T05:35:46.929Z,1.43
2023-03-15T05:38:18.082Z,2.70
2023-03-15T05:40:49.841Z,1.47
2023-03-15T05:43:20.004Z,1.70
2023-03-15T05:45:53.095Z,1.37
2023-03-15T05:48:23.248Z,2.27
2023-03-15T05:50:53.393Z,3.40
2023-03-15T05:53:23.501Z,1.30
2023-03-15T05:55:53.711Z,2.50
2023-03-15T05:58:23.904Z,0.73
2023-03-15T06:00:56.810Z,1.10
2023-03-15T06:03:27.115Z,2.43
2023-03-15T06:05:57.226Z,0.80
2023-03-15T06:08:30.606Z,3.00
2023-03-15T06:11:01.928Z,2.10
2023-03-15T06:13:32.096Z,2.60
2023-03-15T06:16:05.588Z,4.37
2023-03-15T06:18:38.027Z,2.97
2023-03-15T06:21:08.835Z,3.10
2023-03-15T06:23:39.615Z,2.43
2023-03-15T06:26:09.792Z,2.80
2023-03-15T06:28:40.114Z,3.03
2023-03-15T06:31:16.876Z,4.03
2023-03-15T06:33:47.116Z,3.13
2023-03-15T06:36:17.424Z,4.30
2023-03-15T06:38:47.700Z,3.77
2023-03-15T06:41:17.994Z,5.50
2023-03-15T06:43:50.506Z,3.50
2023-03-15T06:46:23.301Z,3.97
2023-03-15T06:48:53.478Z,3.93
2023-03-15T06:51:23.636Z,7.73
2023-03-15T06:53:53.815Z,4.07
2023-03-15T06:56:25.056Z,5.40
2023-03-15T06:58:55.238Z,4.47
2023-03-15T07:01:27.981Z,5.37
2023-03-15T07:03:58.182Z,5.17
2023-03-15T07:06:29.318Z,5.47
2023-03-15T07:08:59.625Z,5.27
2023-03-15T07:11:32.580Z,6.40
2023-03-15T07:14:03.138Z,10.53
2023-03-15T07:16:38.017Z,6.50
2023-03-15T07:19:08.293Z,6.97
2023-03-15T07:21:40.742Z,5.70
2023-03-15T07:24:14.046Z,7.70
2023-03-15T07:26:44.249Z,10.13
2023-03-15T07:29:14.492Z,12.97
2023-03-15T07:31:47.291Z,7.27
2023-03-15T07:34:17.665Z,8.33
2023-03-15T07:36:47.808Z,9.33
2023-03-15T07:39:18.101Z,9.20
2023-03-15T07:41:48.303Z,8.73
2023-03-15T07:44:18.636Z,20.70
2023-03-15T07:46:51.472Z,10.47
2023-03-15T07:49:21.712Z,10.37
2023-03-15T07:51:51.812Z,12.67
2023-03-15T07:54:22.165Z,11.57
2023-03-15T07:56:52.313Z,9.70
2023-03-15T07:59:22.493Z,8.63
2023-03-15T08:01:55.285Z,11.87
2023-03-15T08:04:26.802Z,9.57
2023-03-15T08:06:56.909Z,8.13
2023-03-15T08:09:29.924Z,7.17
2023-03-15T08:12:00.302Z,8.10
2023-03-15T08:14:32.127Z,11.03
2023-03-15T08:17:04.841Z,9.80
2023-03-15T08:19:35.143Z,8.67
2023-03-15T08:22:06.158Z,6.73
2023-03-15T08:24:36.786Z,8.03
2023-03-15T08:27:10.066Z,8.33
2023-03-15T08:29:40.226Z,7.70
2023-03-15T08:32:13.483Z,6.40
2023-03-15T08:34:43.612Z,6.03
2023-03-15T08:37:14.875Z,9.07
2023-03-15T08:39:45.173Z,8.13
2023-03-15T08:42:15.792Z,5.77
2023-03-15T08:44:46.065Z,4.90
2023-03-15T08:47:18.878Z,5.07
2023-03-15T08:49:49.008Z,3.75
2023-03-15T08:52:19.129Z,3.95
2023-03-15T08:54:51.903Z,4.45
2023-03-15T08:57:25.771Z,3.63
2023-03-15T08:59:58.137Z,3.65
2023-03-15T09:02:31.511Z,3.33
2023-03-15T09:05:01.697Z,3.53
2023-03-15T09:07:32.796Z,4.40
2023-03-15T09:10:05.649Z,4.40
2023-03-15T09:12:35.881Z,5.67
2023-03-15T09:15:07.938Z,4.23
2023-03-15T09:17:40.969Z,5.20
2023-03-15T09:20:16.655Z,5.77
2023-03-15T09:22:52.501Z,6.73
2023-03-15T09:25:23.114Z,4.10
2023-03-15T09:27:53.779Z,12.43
2023-03-15T09:30:24.338Z,7.40
2023-03-15T09:32:57.305Z,3.50
2023-03-15T09:35:27.494Z,7.87
2023-03-15T09:37:57.977Z,8.05
2023-03-15T09:40:33.531Z,4.32
2023-03-15T09:43:10.247Z,3.10
2023-03-15T09:46:08.502Z,2.30
2023-03-15T09:48:56.597Z,5.45
2023-03-15T09:51:43.072Z,5.32
2023-03-15T09:54:19.400Z,4.90
2023-03-15T09:56:59.284Z,6.93
2023-03-15T09:59:37.415Z,5.22
2023-03-15T10:02:24.365Z,5.63
2023-03-15T10:05:04.097Z,4.65
2023-03-15T10:07:34.286Z,4.10
2023-03-15T10:10:05.034Z,5.70
2023-03-15T10:12:44.019Z,6.65
2023-03-15T10:16:00.443Z,3.75
2023-03-15T10:18:54.392Z,5.53
2023-03-15T10:21:52.210Z,4.07
2023-03-15T10:24:34.209Z,4.55
2023-03-15T10:27:18.919Z,3.78
2023-03-15T10:29:51.888Z,3.78
2023-03-15T10:32:27.673Z,4.28
2023-03-15T10:35:01.166Z,5.25
2023-03-15T10:37:36.023Z,3.33
2023-03-15T10:40:14.228Z,6.57
2023-03-15T10:42:47.982Z,5.47
2023-03-15T10:45:25.927Z,3.58
2023-03-15T10:48:00.727Z,4.72
2023-03-15T10:50:35.304Z,6.88
2023-03-15T10:53:21.010Z,3.88
2023-03-15T10:55:52.300Z,4.47
2023-03-15T10:58:28.211Z,4.35
2023-03-15T11:01:07.431Z,4.50
2023-03-15T11:03:39.598Z,3.53
2023-03-15T11:06:28.989Z,5.13
2023-03-15T11:09:12.886Z,4.60
2023-03-15T11:12:01.732Z,4.30
2023-03-15T11:14:40.336Z,8.77
2023-03-15T11:17:22.205Z,3.83
2023-03-15T11:19:59.945Z,4.03
2023-03-15T11:22:30.199Z,5.07
2023-03-15T11:25:04.353Z,3.80
2023-03-15T11:27:34.687Z,20.20
2023-03-15T11:30:05.349Z,8.35
2023-03-15T11:32:36.958Z,6.43
2023-03-15T11:35:11.366Z,4.20
2023-03-15T11:37:48.941Z,3.55
2023-03-15T11:40:29.566Z,5.38
2023-03-15T11:43:06.516Z,3.15
2023-03-15T11:45:45.817Z,3.28
2023-03-15T11:48:27.459Z,4.30
2023-03-15T11:50:58.938Z,3.42
2023-03-15T11:53:39.457Z,4.72
2023-03-15T11:56:30.073Z,3.83
2023-03-15T11:59:11.342Z,9.48
2023-03-15T12:01:46.185Z,5.88
2023-03-15T12:04:49.321Z,3.17
2023-03-15T12:08:00.120Z,5.68
2023-03-15T12:10:46.572Z,3.55
2023-03-15T12:13:29.742Z,3.65
2023-03-15T12:16:01.044Z,5.70
2023-03-15T12:18:41.350Z,4.10
2023-03-15T12:21:26.511Z,4.88
2023-03-15T12:24:05.325Z,2.30
2023-03-15T12:26:47.777Z,3.78
2023-03-15T12:29:27.772Z,2.35
2023-03-15T12:32:15.624Z,4.22
2023-03-15T12:34:52.758Z,4.00
2023-03-15T12:37:28.583Z,4.72
2023-03-15T12:40:48.024Z,6.50
2023-03-15T12:43:18.361Z,4.03
2023-03-15T12:45:51.692Z,4.28
2023-03-15T12:48:30.169Z,2.90
2023-03-15T12:51:36.671Z,3.25
2023-03-15T12:54:17.250Z,2.58
2023-03-15T12:56:54.469Z,5.53
2023-03-15T12:59:43.618Z,4.53
2023-03-15T13:02:42.713Z,6.25
2023-03-15T13:05:26.953Z,6.20
2023-03-15T13:08:01.186Z,3.30
2023-03-15T13:10:55.256Z,1.95
2023-03-15T13:13:52.036Z,4.03
2023-03-15T13:16:36.234Z,2.33
2023-03-15T13:19:22.913Z,3.00
2023-03-15T13:22:14.859Z,2.75
2023-03-15T13:25:00.370Z,2.42
2023-03-15T13:27:51.140Z,6.40
2023-03-15T13:30:44.413Z,4.43
2023-03-15T13:33:28.449Z,2.65
2023-03-15T13:36:05.239Z,2.47
2023-03-15T13:38:38.128Z,1.30
2023-03-15T13:41:21.586Z,1.33
2023-03-15T13:43:57.411Z,3.72
2023-03-15T13:46:30.280Z,3.03
2023-03-15T13:49:03.513Z,3.85
2023-03-15T13:51:37.542Z,3.08
2023-03-15T13:54:11.317Z,2.75
2023-03-15T13:56:57.247Z,1.63
2023-03-15T13:59:40.840Z,2.03
2023-03-15T14:02:18.932Z,1.80
2023-03-15T14:04:58.912Z,3.95
2023-03-15T14:07:37.953Z,1.42
2023-03-15T14:10:32.107Z,3.45
2023-03-15T14:13:24.028Z,2.50
2023-03-15T14:16:03.697Z,2.05
2023-03-15T14:18:37.543Z,3.80
2023-03-15T14:21:17.837Z,3.08
2023-03-15T14:23:51.048Z,3.50
2023-03-15T14:26:25.543Z,3.42
2023-03-15T14:29:02.622Z,3.67
2023-03-15T14:31:42.383Z,3.28
2023-03-15T14:34:26.542Z,4.88
2023-03-15T14:37:00.350Z,3.08
2023-03-15T14:39:34.440Z,4.30
2023-03-15T14:42:04.544Z,3.20
2023-03-15T14:44:34.788Z,3.33
2023-03-15T14:47:17.820Z,3.28
2023-03-15T14:49:48.918Z,3.65
2023-03-15T14:52:19.133Z,3.53
2023-03-15T14:54:53.647Z,1.45
2023-03-15T14:57:23.715Z,2.97
2023-03-15T14:59:54.046Z,5.25
2023-03-15T15:02:33.422Z,3.08
2023-03-15T15:05:08.394Z,3.17
2023-03-15T15:07:42.289Z,4.47
2023-03-15T15:10:14.104Z,2.45
2023-03-15T15:12:46.724Z,3.03
2023-03-15T15:15:21.672Z,1.13
2023-03-15T15:17:54.646Z,1.58
2023-03-15T15:20:25.535Z,2.47
2023-03-15T15:22:55.685Z,6.65
2023-03-15T15:25:28.525Z,7.88
2023-03-15T15:27:58.752Z,2.92
2023-03-15T15:30:30.643Z,3.65
2023-03-15T15:33:03.684Z,2.42
2023-03-15T15:35:34.261Z,1.67
2023-03-15T15:38:06.796Z,1.52
2023-03-15T15:40:37.041Z,6.00
2023-03-15T15:43:07.552Z,2.75
2023-03-15T15:45:38.885Z,2.75
2023-03-15T15:48:11.810Z,1.77
2023-03-15T15:50:41.998Z,3.80
2023-03-15T15:53:21.138Z,0.85
2023-03-15T15:55:51.313Z,1.42
2023-03-15T15:58:22.860Z,2.08
2023-03-15T16:00:53.001Z,3.08
2023-03-15T16:03:28.157Z,3.10
2023-03-15T16:05:58.480Z,3.47
2023-03-15T16:08:30.677Z,2.30
2023-03-15T16:11:01.249Z,2.90
2023-03-15T16:13:31.433Z,3.33
2023-03-15T16:16:01.701Z,3.55
2023-03-15T16:18:34.861Z,2.95
2023-03-15T16:21:07.339Z,1.83
2023-03-15T16:23:39.471Z,3.00
2023-03-15T16:26:09.879Z,4.00
2023-03-15T16:28:40.023Z,1.57
2023-03-15T16:31:10.251Z,1.80
2023-03-15T16:33:43.004Z,3.20
2023-03-15T16:36:28.590Z,3.70
2023-03-15T16:38:59.099Z,3.43
2023-03-15T16:41:29.470Z,2.53
2023-03-15T16:44:01.506Z,2.57
2023-03-15T16:46:31.682Z,4.03
2023-03-15T16:49:06.958Z,2.97
2023-03-15T16:51:38.758Z,1.97
2023-03-15T16:54:21.799Z,4.60
2023-03-15T16:56:54.730Z,3.93
2023-03-15T16:59:25.354Z,2.30
2023-03-15T17:01:55.465Z,2.53
2023-03-15T17:04:28.406Z,3.73
2023-03-15T17:06:59.247Z,6.00
2023-03-15T17:09:29.387Z,4.83
2023-03-15T17:11:59.606Z,4.37
2023-03-15T17:14:35.379Z,4.20
2023-03-15T17:17:08.608Z,2.17
2023-03-15T17:19:41.269Z,3.67
2023-03-15T17:22:12.924Z,6.77
2023-03-15T17:24:44.523Z,4.43
2023-03-15T17:27:25.303Z,6.83
2023-03-15T17:29:55.427Z,5.37
2023-03-15T17:32:28.018Z,3.73
2023-03-15T17:35:00.992Z,5.93
2023-03-15T17:37:36.442Z,6.53
2023-03-15T17:40:19.320Z,7.33
2023-03-15T17:45:28.649Z,6.13
2023-03-15T17:47:59.745Z,6.03
2023-03-15T17:50:36.101Z,8.37
2023-03-15T17:53:10.653Z,6.60
2023-03-15T17:55:40.949Z,5.00
2023-03-15T17:58:22.940Z,7.63
2023-03-15T18:00:54.664Z,7.50
2023-03-15T18:03:26.380Z,4.87
2023-03-15T18:06:01.385Z,5.40
2023-03-15T18:08:31.610Z,6.10
2023-03-15T18:11:04.448Z,9.90
2023-03-15T18:13:34.703Z,3.07
2023-03-15T18:16:05.015Z,4.23
2023-03-15T18:18:35.218Z,7.93
2023-03-15T18:21:15.653Z,6.23
2023-03-15T18:23:47.056Z,6.97
2023-03-15T18:26:17.356Z,4.93
2023-03-15T18:28:49.459Z,7.37
2023-03-15T18:31:24.042Z,5.73
2023-03-15T18:33:58.246Z,7.07
2023-03-15T18:36:33.373Z,6.10
2023-03-15T18:39:06.445Z,5.13
2023-03-15T18:41:38.027Z,6.13
2023-03-15T18:44:08.755Z,8.57
2023-03-15T18:46:38.927Z,6.27
2023-03-15T18:49:11.684Z,8.03
2023-03-15T18:51:44.531Z,14.37
2023-03-15T18:54:14.790Z,9.67
2023-03-15T18:56:44.945Z,7.83
2023-03-15T18:59:15.118Z,6.50
2023-03-15T19:01:45.331Z,7.50
2023-03-15T19:04:15.480Z,7.63
2023-03-15T19:06:48.187Z,8.23
2023-03-15T19:09:18.603Z,6.77
2023-03-15T19:11:51.323Z,8.40
2023-03-15T19:14:23.075Z,7.80
2023-03-15T19:16:54.174Z,9.30
2023-03-15T19:19:24.494Z,5.57
2023-03-15T19:22:01.371Z,5.67
2023-03-15T19:24:33.205Z,6.87
2023-03-15T19:27:04.673Z,7.93
2023-03-15T19:29:35.030Z,12.40
2023-03-15T19:32:06.473Z,12.53
2023-03-15T19:34:36.615Z,9.83
2023-03-15T19:37:09.337Z,9.10
2023-03-15T19:39:39.532Z,8.37
2023-03-15T19:42:09.664Z,8.80
2023-03-15T19:44:39.776Z,6.77
2023-03-15T19:47:09.945Z,8.97
2023-03-15T19:49:41.232Z,10.33
2023-03-15T19:52:15.758Z,6.37
2023-03-15T19:54:47.518Z,5.30
2023-03-15T19:57:17.725Z,4.57
2023-03-15T19:59:48.085Z,3.97
2023-03-15T20:02:18.248Z,5.27
2023-03-15T20:04:48.848Z,4.87
2023-03-15T20:07:21.572Z,5.27
2023-03-15T20:09:51.747Z,4.27
2023-03-15T20:12:22.018Z,7.80
2023-03-15T20:14:52.144Z,8.33
2023-03-15T20:17:22.957Z,5.00
2023-03-15T20:19:55.430Z,5.70
2023-03-15T20:22:28.176Z,4.90
2023-03-15T20:24:58.341Z,5.97
2023-03-15T20:27:29.654Z,6.37
2023-03-15T20:29:59.984Z,5.23
2023-03-15T20:32:30.356Z,5.13
2023-03-15T20:35:04.546Z,4.47
2023-03-15T20:37:42.695Z,6.73
2023-03-15T20:40:18.225Z,5.17
2023-03-15T20:42:48.980Z,7.13
2023-03-15T20:45:21.513Z,5.43
2023-03-15T20:47:54.144Z,6.23
2023-03-15T20:50:24.750Z,3.97
2023-03-15T20:52:57.610Z,6.07
2023-03-15T20:55:27.792Z,3.70
2023-03-15T20:57:58.111Z,5.63
2023-03-15T21:00:29.730Z,4.17
2023-03-15T21:03:01.946Z,4.70
2023-03-15T21:05:32.410Z,4.23
2023-03-15T21:08:07.554Z,4.40
2023-03-15T21:10:40.356Z,5.77
2023-03-15T21:13:12.671Z,4.37
2023-03-15T21:15:48.931Z,3.83
2023-03-15T21:18:23.739Z,3.73
2023-03-15T21:21:00.953Z,3.70
2023-03-15T21:23:34.570Z,5.20
2023-03-15T21:26:08.558Z,4.70
2023-03-15T21:28:39.202Z,7.07
2023-03-15T21:31:12.025Z,9.90
2023-03-15T21:33:42.188Z,6.97
2023-03-15T21:36:12.713Z,3.60
2023-03-15T21:38:45.378Z,4.00
2023-03-15T21:41:15.560Z,4.70
2023-03-15T21:43:45.644Z,3.90
2023-03-15T21:46:16.796Z,5.50
2023-03-15T21:48:47.059Z,4.13
2023-03-15T21:51:17.515Z,4.07
2023-03-15T21:53:50.409Z,4.43
2023-03-15T21:56:20.671Z,6.53
2023-03-15T21:58:52.626Z,3.07
2023-03-15T22:01:24.604Z,2.90
2023-03-15T22:03:55.919Z,3.23
2023-03-15T22:06:26.155Z,2.83
2023-03-15T22:09:01.176Z,5.13
2023-03-15T22:11:31.356Z,4.30
2023-03-15T22:14:02.635Z,3.90
2023-03-15T22:16:33.409Z,5.83
2023-03-15T22:19:03.612Z,3.53
2023-03-15T22:21:34.257Z,2.90
2023-03-15T22:24:07.503Z,3.27
2023-03-15T22:26:37.735Z,2.67
2023-03-15T22:29:07.973Z,3.73
2023-03-15T22:31:38.277Z,3.93
2023-03-15T22:34:09.319Z,2.57
2023-03-15T22:36:39.455Z,4.50
2023-03-15T22:39:14.341Z,3.57
2023-03-15T22:41:44.483Z,3.60
2023-03-15T22:44:14.568Z,3.40
2023-03-15T22:46:44.752Z,3.70
2023-03-15T22:49:14.900Z,3.80
2023-03-15T22:51:45.191Z,2.97
2023-03-15T22:54:18.166Z,3.97
2023-03-15T22:56:48.396Z,2.93
2023-03-15T22:59:18.522Z,3.33
2023-03-15T23:01:48.825Z,3.90
2023-03-15T23:04:18.961Z,3.73
2023-03-15T23:06:49.149Z,2.97
2023-03-15T23:09:21.951Z,4.43
2023-03-15T23:11:52.367Z,3.83
2023-03-15T23:14:22.482Z,3.83
2023-03-15T23:16:52.696Z,3.30
2023-03-15T23:19:22.856Z,2.80
2023-03-15T23:21:55.170Z,4.00
2023-03-15T23:24:27.862Z,6.07
2023-03-15T23:26:59.244Z,2.30
2023-03-15T23:29:29.420Z,3.63
2023-03-15T23:31:59.876Z,3.13
2023-03-15T23:34:30.758Z,3.73
2023-03-15T23:37:00.988Z,3.93
2023-03-15T23:39:33.694Z,4.97
2023-03-15T23:42:04.847Z,2.30
2023-03-15T23:44:35.158Z,3.23
2023-03-15T23:47:05.755Z,3.13
2023-03-15T23:49:36.450Z,2.53
2023-03-15T23:52:08.134Z,5.77
2023-03-15T23:54:42.420Z,4.50
2023-03-15T23:57:16.722Z,5.63
2023-03-15T23:59:47.165Z,3.83
